sensor_id;sensor_type;location;lat;lon;timestamp;P1;durP1;ratioP1;P2;durP2;ratioP2
38937;SDS011;24727;51.974;20.868;2022-09-09T00:00:44;11.60;;;5.22;;
38937;SDS011;24727;51.974;20.868;2022-09-09T00:03:20;9.90;;;5.45;;
38937;SDS011;24727;51.974;20.868;2022-09-09T00:09:15;10.57;;;5.78;;
38937;SDS011;24727;51.974;20.868;2022-09-09T00:11:17;9.45;;;5.18;;
38937;SDS011;24727;51.974;20.868;2022-09-09T00:13:52;10.45;;;5.43;;
38937;SDS011;24727;51.974;20.868;2022-09-09T00:16:23;10.75;;;5.05;;
38937;SDS011;24727;51.974;20.868;2022-09-09T00:21:18;7.28;;;5.38;;
38937;SDS011;24727;51.974;20.868;2022-09-09T00:27:01;10.82;;;5.78;;
38937;SDS011;24727;51.974;20.868;2022-09-09T00:32:17;9.70;;;5.30;;
38937;SDS011;24727;51.974;20.868;2022-09-09T00:34:55;9.60;;;5.78;;
38937;SDS011;24727;51.974;20.868;2022-09-09T00:40:04;10.07;;;5.07;;
38937;SDS011;24727;51.974;20.868;2022-09-09T00:42:43;11.45;;;5.45;;
38937;SDS011;24727;51.974;20.868;2022-09-09T00:47:43;9.07;;;5.55;;
38937;SDS011;24727;51.974;20.868;2022-09-09T00:58:32;8.48;;;5.47;;
38937;SDS011;24727;51.974;20.868;2022-09-09T01:03:46;13.25;;;6.90;;
38937;SDS011;24727;51.974;20.868;2022-09-09T01:06:30;11.77;;;6.05;;
38937;SDS011;24727;51.974;20.868;2022-09-09T01:09:11;9.18;;;5.90;;
38937;SDS011;24727;51.974;20.868;2022-09-09T01:11:57;13.77;;;7.25;;
38937;SDS011;24727;51.974;20.868;2022-09-09T01:17:09;11.80;;;6.60;;
38937;SDS011;24727;51.974;20.868;2022-09-09T01:19:49;9.20;;;6.05;;
38937;SDS011;24727;51.974;20.868;2022-09-09T01:30:28;12.50;;;7.28;;
38937;SDS011;24727;51.974;20.868;2022-09-09T01:32:56;10.52;;;6.47;;
38937;SDS011;24727;51.974;20.868;2022-09-09T01:35:33;12.13;;;6.80;;
38937;SDS011;24727;51.974;20.868;2022-09-09T01:38:07;10.77;;;7.22;;
38937;SDS011;24727;51.974;20.868;2022-09-09T01:40:35;11.65;;;6.95;;
38937;SDS011;24727;51.974;20.868;2022-09-09T01:43:01;10.07;;;6.93;;
38937;SDS011;24727;51.974;20.868;2022-09-09T01:45:28;8.30;;;5.80;;
38937;SDS011;24727;51.974;20.868;2022-09-09T01:47:55;9.73;;;6.47;;
38937;SDS011;24727;51.974;20.868;2022-09-09T01:50:21;11.98;;;7.35;;
38937;SDS011;24727;51.974;20.868;2022-09-09T01:52:57;10.27;;;6.30;;
38937;SDS011;24727;51.974;20.868;2022-09-09T01:55:38;13.55;;;7.97;;
38937;SDS011;24727;51.974;20.868;2022-09-09T01:58:11;12.27;;;7.53;;
38937;SDS011;24727;51.974;20.868;2022-09-09T02:01:07;11.98;;;7.07;;
38937;SDS011;24727;51.974;20.868;2022-09-09T02:03:40;10.15;;;7.20;;
38937;SDS011;24727;51.974;20.868;2022-09-09T02:08:50;11.00;;;7.32;;
38937;SDS011;24727;51.974;20.868;2022-09-09T02:11:23;10.02;;;6.47;;
38937;SDS011;24727;51.974;20.868;2022-09-09T02:13:54;14.68;;;7.15;;
38937;SDS011;24727;51.974;20.868;2022-09-09T02:16:47;13.48;;;7.32;;
38937;SDS011;24727;51.974;20.868;2022-09-09T02:19:19;10.98;;;7.18;;
38937;SDS011;24727;51.974;20.868;2022-09-09T02:21:57;18.33;;;7.95;;
38937;SDS011;24727;51.974;20.868;2022-09-09T02:24:26;12.13;;;7.95;;
38937;SDS011;24727;51.974;20.868;2022-09-09T02:26:56;11.52;;;7.47;;
38937;SDS011;24727;51.974;20.868;2022-09-09T02:29:31;11.05;;;7.05;;
38937;SDS011;24727;51.974;20.868;2022-09-09T02:32:07;13.75;;;8.05;;
38937;SDS011;24727;51.974;20.868;2022-09-09T02:34:37;12.95;;;7.88;;
38937;SDS011;24727;51.974;20.868;2022-09-09T02:37:08;11.50;;;7.90;;
38937;SDS011;24727;51.974;20.868;2022-09-09T02:39:41;12.85;;;8.02;;
38937;SDS011;24727;51.974;20.868;2022-09-09T02:42:09;11.57;;;7.32;;
38937;SDS011;24727;51.974;20.868;2022-09-09T02:44:35;12.63;;;8.25;;
38937;SDS011;24727;51.974;20.868;2022-09-09T02:47:24;10.45;;;7.75;;
38937;SDS011;24727;51.974;20.868;2022-09-09T02:52:52;16.85;;;8.85;;
38937;SDS011;24727;51.974;20.868;2022-09-09T02:58:21;13.90;;;9.00;;
38937;SDS011;24727;51.974;20.868;2022-09-09T03:00:49;12.25;;;7.82;;
38937;SDS011;24727;51.974;20.868;2022-09-09T03:03:17;11.20;;;7.43;;
38937;SDS011;24727;51.974;20.868;2022-09-09T03:05:45;12.00;;;7.63;;
38937;SDS011;24727;51.974;20.868;2022-09-09T03:08:13;13.10;;;8.32;;
38937;SDS011;24727;51.974;20.868;2022-09-09T03:10:40;12.25;;;8.35;;
38937;SDS011;24727;51.974;20.868;2022-09-09T03:13:06;12.60;;;7.85;;
38937;SDS011;24727;51.974;20.868;2022-09-09T03:15:33;12.55;;;8.73;;
38937;SDS011;24727;51.974;20.868;2022-09-09T03:18:00;11.70;;;6.82;;
38937;SDS011;24727;51.974;20.868;2022-09-09T03:20:28;11.25;;;6.78;;
38937;SDS011;24727;51.974;20.868;2022-09-09T03:22:56;13.52;;;8.18;;
38937;SDS011;24727;51.974;20.868;2022-09-09T03:25:25;14.10;;;7.93;;
38937;SDS011;24727;51.974;20.868;2022-09-09T03:27:53;11.52;;;7.47;;
38937;SDS011;24727;51.974;20.868;2022-09-09T03:30:27;9.45;;;7.35;;
38937;SDS011;24727;51.974;20.868;2022-09-09T03:32:54;10.60;;;7.35;;
38937;SDS011;24727;51.974;20.868;2022-09-09T03:35:20;9.48;;;5.97;;
38937;SDS011;24727;51.974;20.868;2022-09-09T03:37:46;11.90;;;7.25;;
38937;SDS011;24727;51.974;20.868;2022-09-09T03:40:13;9.48;;;6.45;;
38937;SDS011;24727;51.974;20.868;2022-09-09T03:42:39;8.15;;;5.78;;
38937;SDS011;24727;51.974;20.868;2022-09-09T03:45:06;13.57;;;6.50;;
38937;SDS011;24727;51.974;20.868;2022-09-09T03:47:35;9.48;;;6.00;;
38937;SDS011;24727;51.974;20.868;2022-09-09T03:50:02;8.88;;;5.70;;
38937;SDS011;24727;51.974;20.868;2022-09-09T03:52:34;7.32;;;5.32;;
38937;SDS011;24727;51.974;20.868;2022-09-09T03:55:01;9.02;;;6.45;;
38937;SDS011;24727;51.974;20.868;2022-09-09T03:57:28;10.48;;;7.10;;
38937;SDS011;24727;51.974;20.868;2022-09-09T04:11:16;10.40;;;6.88;;
38937;SDS011;24727;51.974;20.868;2022-09-09T04:13:43;6.68;;;4.97;;
38937;SDS011;24727;51.974;20.868;2022-09-09T04:16:10;14.55;;;6.28;;
38937;SDS011;24727;51.974;20.868;2022-09-09T04:18:38;7.30;;;5.82;;
38937;SDS011;24727;51.974;20.868;2022-09-09T04:21:05;8.25;;;5.75;;
38937;SDS011;24727;51.974;20.868;2022-09-09T04:23:32;10.68;;;6.57;;
38937;SDS011;24727;51.974;20.868;2022-09-09T04:25:59;8.32;;;5.10;;
38937;SDS011;24727;51.974;20.868;2022-09-09T04:28:28;7.45;;;5.72;;
38937;SDS011;24727;51.974;20.868;2022-09-09T04:30:55;9.32;;;6.15;;
38937;SDS011;24727;51.974;20.868;2022-09-09T04:33:25;9.70;;;6.05;;
38937;SDS011;24727;51.974;20.868;2022-09-09T04:35:52;8.15;;;5.78;;
38937;SDS011;24727;51.974;20.868;2022-09-09T04:38:20;7.28;;;5.85;;
38937;SDS011;24727;51.974;20.868;2022-09-09T04:40:48;7.57;;;5.13;;
38937;SDS011;24727;51.974;20.868;2022-09-09T04:43:20;8.70;;;6.22;;
38937;SDS011;24727;51.974;20.868;2022-09-09T04:45:47;7.85;;;5.90;;
38937;SDS011;24727;51.974;20.868;2022-09-09T04:48:14;8.85;;;6.47;;
38937;SDS011;24727;51.974;20.868;2022-09-09T04:50:40;8.63;;;6.10;;
38937;SDS011;24727;51.974;20.868;2022-09-09T04:53:06;10.55;;;5.50;;
38937;SDS011;24727;51.974;20.868;2022-09-09T04:55:32;6.57;;;5.60;;
38937;SDS011;24727;51.974;20.868;2022-09-09T04:58:03;9.68;;;6.78;;
38937;SDS011;24727;51.974;20.868;2022-09-09T05:00:30;8.75;;;5.57;;
38937;SDS011;24727;51.974;20.868;2022-09-09T05:02:58;8.02;;;5.97;;
38937;SDS011;24727;51.974;20.868;2022-09-09T05:05:32;7.50;;;5.72;;
38937;SDS011;24727;51.974;20.868;2022-09-09T05:08:04;7.82;;;6.05;;
38937;SDS011;24727;51.974;20.868;2022-09-09T05:10:31;7.38;;;5.70;;
38937;SDS011;24727;51.974;20.868;2022-09-09T05:12:59;8.73;;;5.90;;
38937;SDS011;24727;51.974;20.868;2022-09-09T05:15:25;10.98;;;5.70;;
38937;SDS011;24727;51.974;20.868;2022-09-09T05:17:52;7.63;;;6.10;;
38937;SDS011;24727;51.974;20.868;2022-09-09T05:20:21;13.77;;;6.63;;
38937;SDS011;24727;51.974;20.868;2022-09-09T05:22:47;8.68;;;6.60;;
38937;SDS011;24727;51.974;20.868;2022-09-09T05:25:17;12.73;;;6.85;;
38937;SDS011;24727;51.974;20.868;2022-09-09T05:27:44;10.32;;;7.20;;
38937;SDS011;24727;51.974;20.868;2022-09-09T05:30:10;6.00;;;4.78;;
38937;SDS011;24727;51.974;20.868;2022-09-09T05:32:37;5.85;;;4.43;;
38937;SDS011;24727;51.974;20.868;2022-09-09T05:35:03;5.18;;;4.13;;
38937;SDS011;24727;51.974;20.868;2022-09-09T05:37:30;9.32;;;6.60;;
38937;SDS011;24727;51.974;20.868;2022-09-09T05:39:56;11.40;;;7.75;;
38937;SDS011;24727;51.974;20.868;2022-09-09T05:42:23;9.82;;;6.85;;
38937;SDS011;24727;51.974;20.868;2022-09-09T05:44:49;11.98;;;7.60;;
38937;SDS011;24727;51.974;20.868;2022-09-09T05:47:17;13.63;;;8.05;;
38937;SDS011;24727;51.974;20.868;2022-09-09T05:49:42;11.63;;;8.43;;
38937;SDS011;24727;51.974;20.868;2022-09-09T05:52:09;11.20;;;8.48;;
38937;SDS011;24727;51.974;20.868;2022-09-09T05:54:35;12.25;;;9.05;;
38937;SDS011;24727;51.974;20.868;2022-09-09T05:57:02;10.77;;;8.05;;
38937;SDS011;24727;51.974;20.868;2022-09-09T05:59:28;8.30;;;6.82;;
38937;SDS011;24727;51.974;20.868;2022-09-09T06:01:55;11.48;;;5.90;;
38937;SDS011;24727;51.974;20.868;2022-09-09T06:04:21;9.50;;;6.90;;
38937;SDS011;24727;51.974;20.868;2022-09-09T06:06:47;8.95;;;7.07;;
38937;SDS011;24727;51.974;20.868;2022-09-09T06:09:13;11.07;;;8.13;;
38937;SDS011;24727;51.974;20.868;2022-09-09T06:11:40;13.13;;;8.38;;
38937;SDS011;24727;51.974;20.868;2022-09-09T06:14:08;11.93;;;7.85;;
38937;SDS011;24727;51.974;20.868;2022-09-09T06:16:35;8.20;;;6.85;;
38937;SDS011;24727;51.974;20.868;2022-09-09T06:19:03;9.45;;;7.57;;
38937;SDS011;24727;51.974;20.868;2022-09-09T06:21:34;11.10;;;7.68;;
38937;SDS011;24727;51.974;20.868;2022-09-09T06:24:06;10.05;;;7.78;;
38937;SDS011;24727;51.974;20.868;2022-09-09T06:26:33;8.77;;;6.57;;
38937;SDS011;24727;51.974;20.868;2022-09-09T06:29:01;9.15;;;6.85;;
38937;SDS011;24727;51.974;20.868;2022-09-09T06:31:29;12.60;;;8.02;;
38937;SDS011;24727;51.974;20.868;2022-09-09T06:33:58;13.20;;;8.05;;
38937;SDS011;24727;51.974;20.868;2022-09-09T06:36:26;11.65;;;8.88;;
38937;SDS011;24727;51.974;20.868;2022-09-09T06:38:57;9.13;;;8.15;;
38937;SDS011;24727;51.974;20.868;2022-09-09T06:41:24;12.18;;;8.93;;
38937;SDS011;24727;51.974;20.868;2022-09-09T06:43:52;6.88;;;5.72;;
38937;SDS011;24727;51.974;20.868;2022-09-09T06:51:21;13.40;;;10.05;;
38937;SDS011;24727;51.974;20.868;2022-09-09T06:53:51;13.07;;;9.43;;
38937;SDS011;24727;51.974;20.868;2022-09-09T06:56:20;13.75;;;9.73;;
38937;SDS011;24727;51.974;20.868;2022-09-09T06:59:07;9.57;;;7.60;;
38937;SDS011;24727;51.974;20.868;2022-09-09T07:01:38;12.25;;;8.65;;
38937;SDS011;24727;51.974;20.868;2022-09-09T07:04:16;11.52;;;8.30;;
38937;SDS011;24727;51.974;20.868;2022-09-09T07:06:43;11.27;;;8.68;;
38937;SDS011;24727;51.974;20.868;2022-09-09T07:09:12;14.18;;;9.63;;
38937;SDS011;24727;51.974;20.868;2022-09-09T07:11:42;12.75;;;8.90;;
38937;SDS011;24727;51.974;20.868;2022-09-09T07:14:13;12.85;;;10.10;;
38937;SDS011;24727;51.974;20.868;2022-09-09T07:16:41;13.65;;;10.93;;
38937;SDS011;24727;51.974;20.868;2022-09-09T07:19:07;15.00;;;9.95;;
38937;SDS011;24727;51.974;20.868;2022-09-09T07:21:34;15.00;;;10.02;;
38937;SDS011;24727;51.974;20.868;2022-09-09T07:24:00;15.75;;;9.43;;
38937;SDS011;24727;51.974;20.868;2022-09-09T07:26:28;13.90;;;9.80;;
38937;SDS011;24727;51.974;20.868;2022-09-09T07:28:55;15.93;;;9.45;;
38937;SDS011;24727;51.974;20.868;2022-09-09T07:31:26;14.38;;;9.43;;
38937;SDS011;24727;51.974;20.868;2022-09-09T07:33:57;18.48;;;11.48;;
38937;SDS011;24727;51.974;20.868;2022-09-09T07:36:29;16.77;;;11.50;;
38937;SDS011;24727;51.974;20.868;2022-09-09T07:39:04;19.98;;;12.43;;
38937;SDS011;24727;51.974;20.868;2022-09-09T07:41:36;20.30;;;12.93;;
38937;SDS011;24727;51.974;20.868;2022-09-09T07:44:05;20.05;;;12.95;;
38937;SDS011;24727;51.974;20.868;2022-09-09T07:46:37;18.50;;;12.45;;
38937;SDS011;24727;51.974;20.868;2022-09-09T07:49:05;26.05;;;13.18;;
38937;SDS011;24727;51.974;20.868;2022-09-09T07:51:32;22.80;;;14.57;;
38937;SDS011;24727;51.974;20.868;2022-09-09T07:54:02;19.85;;;12.27;;
38937;SDS011;24727;51.974;20.868;2022-09-09T07:56:30;23.45;;;13.10;;
38937;SDS011;24727;51.974;20.868;2022-09-09T07:58:57;16.92;;;11.30;;
38937;SDS011;24727;51.974;20.868;2022-09-09T08:01:30;25.27;;;15.15;;
38937;SDS011;24727;51.974;20.868;2022-09-09T08:04:06;21.65;;;13.43;;
38937;SDS011;24727;51.974;20.868;2022-09-09T08:07:03;29.45;;;16.38;;
38937;SDS011;24727;51.974;20.868;2022-09-09T08:09:29;28.77;;;16.60;;
38937;SDS011;24727;51.974;20.868;2022-09-09T08:11:55;23.08;;;15.18;;
38937;SDS011;24727;51.974;20.868;2022-09-09T08:14:23;24.40;;;14.73;;
38937;SDS011;24727;51.974;20.868;2022-09-09T08:16:51;32.30;;;17.15;;
38937;SDS011;24727;51.974;20.868;2022-09-09T08:19:18;19.20;;;13.60;;
38937;SDS011;24727;51.974;20.868;2022-09-09T08:21:44;23.02;;;14.63;;
38937;SDS011;24727;51.974;20.868;2022-09-09T08:24:11;24.50;;;16.38;;
38937;SDS011;24727;51.974;20.868;2022-09-09T08:26:40;29.00;;;17.67;;
38937;SDS011;24727;51.974;20.868;2022-09-09T08:29:09;22.13;;;14.25;;
38937;SDS011;24727;51.974;20.868;2022-09-09T08:31:38;16.20;;;10.75;;
38937;SDS011;24727;51.974;20.868;2022-09-09T08:34:08;25.55;;;16.30;;
38937;SDS011;24727;51.974;20.868;2022-09-09T08:36:38;19.63;;;12.65;;
38937;SDS011;24727;51.974;20.868;2022-09-09T08:39:11;24.88;;;15.25;;
38937;SDS011;24727;51.974;20.868;2022-09-09T08:52:36;14.00;;;10.60;;
38937;SDS011;24727;51.974;20.868;2022-09-09T08:55:15;23.13;;;14.77;;
38937;SDS011;24727;51.974;20.868;2022-09-09T08:57:58;24.88;;;15.85;;
38937;SDS011;24727;51.974;20.868;2022-09-09T09:00:35;24.25;;;17.55;;
38937;SDS011;24727;51.974;20.868;2022-09-09T09:06:06;18.70;;;12.63;;
38937;SDS011;24727;51.974;20.868;2022-09-09T09:11:56;25.20;;;15.82;;
38937;SDS011;24727;51.974;20.868;2022-09-09T09:14:28;26.80;;;17.10;;
38937;SDS011;24727;51.974;20.868;2022-09-09T09:19:33;23.02;;;14.30;;
38937;SDS011;24727;51.974;20.868;2022-09-09T09:22:19;16.55;;;12.38;;
38937;SDS011;24727;51.974;20.868;2022-09-09T09:27:25;20.90;;;15.40;;
38937;SDS011;24727;51.974;20.868;2022-09-09T09:30:24;25.40;;;16.92;;
38937;SDS011;24727;51.974;20.868;2022-09-09T09:33:34;20.70;;;14.15;;
38937;SDS011;24727;51.974;20.868;2022-09-09T09:35:48;28.98;;;17.98;;
38937;SDS011;24727;51.974;20.868;2022-09-09T09:38:20;23.55;;;16.17;;
38937;SDS011;24727;51.974;20.868;2022-09-09T09:40:52;28.58;;;16.85;;
38937;SDS011;24727;51.974;20.868;2022-09-09T09:43:37;22.52;;;14.82;;
38937;SDS011;24727;51.974;20.868;2022-09-09T09:46:18;31.00;;;18.10;;
38937;SDS011;24727;51.974;20.868;2022-09-09T09:49:02;22.98;;;14.70;;
38937;SDS011;24727;51.974;20.868;2022-09-09T09:51:31;29.55;;;18.05;;
38937;SDS011;24727;51.974;20.868;2022-09-09T09:56:44;29.08;;;19.52;;
38937;SDS011;24727;51.974;20.868;2022-09-09T09:59:22;26.85;;;18.13;;
38937;SDS011;24727;51.974;20.868;2022-09-09T10:01:49;26.35;;;15.45;;
38937;SDS011;24727;51.974;20.868;2022-09-09T10:06:44;24.75;;;16.25;;
38937;SDS011;24727;51.974;20.868;2022-09-09T10:09:26;25.92;;;17.88;;
38937;SDS011;24727;51.974;20.868;2022-09-09T10:12:11;22.23;;;16.08;;
38937;SDS011;24727;51.974;20.868;2022-09-09T10:14:48;20.35;;;13.45;;
38937;SDS011;24727;51.974;20.868;2022-09-09T10:17:37;27.38;;;17.35;;
38937;SDS011;24727;51.974;20.868;2022-09-09T10:20:38;23.80;;;17.20;;
38937;SDS011;24727;51.974;20.868;2022-09-09T10:23:17;27.20;;;18.52;;
38937;SDS011;24727;51.974;20.868;2022-09-09T10:31:38;30.30;;;19.65;;
38937;SDS011;24727;51.974;20.868;2022-09-09T10:46:29;23.33;;;15.77;;
38937;SDS011;24727;51.974;20.868;2022-09-09T10:54:50;28.08;;;19.45;;
38937;SDS011;24727;51.974;20.868;2022-09-09T10:57:33;26.50;;;17.00;;
38937;SDS011;24727;51.974;20.868;2022-09-09T11:02:33;29.50;;;20.42;;
38937;SDS011;24727;51.974;20.868;2022-09-09T11:07:54;30.58;;;20.20;;
38937;SDS011;24727;51.974;20.868;2022-09-09T11:10:27;21.33;;;16.95;;
38937;SDS011;24727;51.974;20.868;2022-09-09T11:12:59;34.13;;;24.25;;
38937;SDS011;24727;51.974;20.868;2022-09-09T11:15:31;25.40;;;17.70;;
38937;SDS011;24727;51.974;20.868;2022-09-09T11:18:04;27.35;;;17.35;;
38937;SDS011;24727;51.974;20.868;2022-09-09T11:20:33;22.10;;;14.88;;
38937;SDS011;24727;51.974;20.868;2022-09-09T11:23:04;23.42;;;15.80;;
38937;SDS011;24727;51.974;20.868;2022-09-09T11:25:38;28.60;;;19.05;;
38937;SDS011;24727;51.974;20.868;2022-09-09T11:36:43;31.05;;;20.05;;
38937;SDS011;24727;51.974;20.868;2022-09-09T11:42:13;29.20;;;17.73;;
38937;SDS011;24727;51.974;20.868;2022-09-09T11:44:46;33.40;;;21.08;;
38937;SDS011;24727;51.974;20.868;2022-09-09T11:52:44;35.92;;;22.13;;
38937;SDS011;24727;51.974;20.868;2022-09-09T11:55:46;31.20;;;19.92;;
38937;SDS011;24727;51.974;20.868;2022-09-09T12:05:58;31.85;;;19.45;;
38937;SDS011;24727;51.974;20.868;2022-09-09T12:08:28;31.92;;;19.70;;
38937;SDS011;24727;51.974;20.868;2022-09-09T12:10:56;31.17;;;19.05;;
38937;SDS011;24727;51.974;20.868;2022-09-09T12:13:25;29.15;;;18.13;;
38937;SDS011;24727;51.974;20.868;2022-09-09T12:15:53;27.00;;;18.30;;
38937;SDS011;24727;51.974;20.868;2022-09-09T12:19:02;35.08;;;21.17;;
38937;SDS011;24727;51.974;20.868;2022-09-09T12:24:20;35.17;;;23.83;;
38937;SDS011;24727;51.974;20.868;2022-09-09T12:30:01;47.55;;;27.60;;
38937;SDS011;24727;51.974;20.868;2022-09-09T12:32:36;36.63;;;25.50;;
38937;SDS011;24727;51.974;20.868;2022-09-09T12:35:04;36.50;;;22.90;;
38937;SDS011;24727;51.974;20.868;2022-09-09T12:37:42;33.40;;;23.35;;
38937;SDS011;24727;51.974;20.868;2022-09-09T12:40:25;26.40;;;17.17;;
38937;SDS011;24727;51.974;20.868;2022-09-09T12:42:53;30.85;;;19.92;;
38937;SDS011;24727;51.974;20.868;2022-09-09T12:45:27;30.10;;;19.75;;
38937;SDS011;24727;51.974;20.868;2022-09-09T12:48:00;35.35;;;21.75;;
38937;SDS011;24727;51.974;20.868;2022-09-09T12:50:32;36.65;;;21.80;;
38937;SDS011;24727;51.974;20.868;2022-09-09T12:53:12;29.20;;;19.10;;
38937;SDS011;24727;51.974;20.868;2022-09-09T12:55:51;29.08;;;19.25;;
38937;SDS011;24727;51.974;20.868;2022-09-09T12:58:29;35.35;;;20.25;;
38937;SDS011;24727;51.974;20.868;2022-09-09T13:01:00;30.35;;;18.55;;
38937;SDS011;24727;51.974;20.868;2022-09-09T13:03:30;33.20;;;20.80;;
38937;SDS011;24727;51.974;20.868;2022-09-09T13:06:21;34.67;;;21.33;;
38937;SDS011;24727;51.974;20.868;2022-09-09T13:08:52;40.08;;;23.50;;
38937;SDS011;24727;51.974;20.868;2022-09-09T13:11:31;33.20;;;21.20;;
38937;SDS011;24727;51.974;20.868;2022-09-09T13:14:03;35.53;;;22.23;;
38937;SDS011;24727;51.974;20.868;2022-09-09T13:16:35;35.35;;;21.95;;
38937;SDS011;24727;51.974;20.868;2022-09-09T13:19:02;33.38;;;21.73;;
38937;SDS011;24727;51.974;20.868;2022-09-09T13:21:34;40.78;;;24.38;;
38937;SDS011;24727;51.974;20.868;2022-09-09T13:24:03;35.05;;;23.05;;
38937;SDS011;24727;51.974;20.868;2022-09-09T13:26:32;37.20;;;24.52;;
38937;SDS011;24727;51.974;20.868;2022-09-09T13:29:15;38.35;;;23.45;;
38937;SDS011;24727;51.974;20.868;2022-09-09T13:31:45;38.08;;;23.73;;
38937;SDS011;24727;51.974;20.868;2022-09-09T13:34:12;33.10;;;22.50;;
38937;SDS011;24727;51.974;20.868;2022-09-09T13:36:39;35.85;;;24.15;;
38937;SDS011;24727;51.974;20.868;2022-09-09T13:39:14;41.97;;;26.40;;
38937;SDS011;24727;51.974;20.868;2022-09-09T13:41:45;37.88;;;23.25;;
38937;SDS011;24727;51.974;20.868;2022-09-09T13:44:21;39.90;;;24.48;;
38937;SDS011;24727;51.974;20.868;2022-09-09T13:47:01;39.20;;;22.92;;
38937;SDS011;24727;51.974;20.868;2022-09-09T13:49:30;32.47;;;20.40;;
38937;SDS011;24727;51.974;20.868;2022-09-09T13:52:08;32.55;;;19.15;;
38937;SDS011;24727;51.974;20.868;2022-09-09T13:54:37;35.17;;;22.17;;
38937;SDS011;24727;51.974;20.868;2022-09-09T13:57:04;33.72;;;21.92;;
38937;SDS011;24727;51.974;20.868;2022-09-09T13:59:30;29.40;;;17.15;;
38937;SDS011;24727;51.974;20.868;2022-09-09T14:01:59;33.70;;;22.20;;
38937;SDS011;24727;51.974;20.868;2022-09-09T14:04:26;29.45;;;18.83;;
38937;SDS011;24727;51.974;20.868;2022-09-09T14:06:54;30.70;;;20.08;;
38937;SDS011;24727;51.974;20.868;2022-09-09T14:09:20;28.88;;;18.88;;
38937;SDS011;24727;51.974;20.868;2022-09-09T14:11:47;28.67;;;19.02;;
38937;SDS011;24727;51.974;20.868;2022-09-09T14:14:15;36.05;;;21.02;;
38937;SDS011;24727;51.974;20.868;2022-09-09T14:16:43;40.65;;;21.15;;
38937;SDS011;24727;51.974;20.868;2022-09-09T14:19:13;30.27;;;18.88;;
38937;SDS011;24727;51.974;20.868;2022-09-09T14:21:41;34.05;;;20.98;;
38937;SDS011;24727;51.974;20.868;2022-09-09T14:24:08;43.20;;;22.80;;
38937;SDS011;24727;51.974;20.868;2022-09-09T14:26:36;38.97;;;21.70;;
38937;SDS011;24727;51.974;20.868;2022-09-09T14:29:04;34.15;;;20.55;;
38937;SDS011;24727;51.974;20.868;2022-09-09T14:31:32;41.80;;;22.50;;
38937;SDS011;24727;51.974;20.868;2022-09-09T14:34:07;44.13;;;21.40;;
38937;SDS011;24727;51.974;20.868;2022-09-09T14:36:36;36.80;;;21.10;;
38937;SDS011;24727;51.974;20.868;2022-09-09T14:39:08;42.45;;;21.58;;
38937;SDS011;24727;51.974;20.868;2022-09-09T14:41:36;41.95;;;23.40;;
38937;SDS011;24727;51.974;20.868;2022-09-09T14:44:04;40.00;;;22.30;;
38937;SDS011;24727;51.974;20.868;2022-09-09T14:46:33;35.15;;;19.15;;
38937;SDS011;24727;51.974;20.868;2022-09-09T14:49:00;38.53;;;21.60;;
38937;SDS011;24727;51.974;20.868;2022-09-09T14:51:27;36.38;;;21.38;;
38937;SDS011;24727;51.974;20.868;2022-09-09T14:53:55;33.80;;;20.20;;
38937;SDS011;24727;51.974;20.868;2022-09-09T14:56:25;35.38;;;21.40;;
38937;SDS011;24727;51.974;20.868;2022-09-09T14:58:55;29.40;;;18.58;;
38937;SDS011;24727;51.974;20.868;2022-09-09T15:01:27;38.30;;;20.75;;
38937;SDS011;24727;51.974;20.868;2022-09-09T15:04:00;32.35;;;17.90;;
38937;SDS011;24727;51.974;20.868;2022-09-09T15:06:32;32.47;;;20.90;;
38937;SDS011;24727;51.974;20.868;2022-09-09T15:09:04;34.63;;;20.27;;
38937;SDS011;24727;51.974;20.868;2022-09-09T15:11:36;65.30;;;30.38;;
38937;SDS011;24727;51.974;20.868;2022-09-09T15:14:04;39.90;;;23.38;;
38937;SDS011;24727;51.974;20.868;2022-09-09T15:16:38;36.55;;;22.35;;
38937;SDS011;24727;51.974;20.868;2022-09-09T15:19:07;36.08;;;19.83;;
38937;SDS011;24727;51.974;20.868;2022-09-09T15:21:35;36.25;;;20.80;;
38937;SDS011;24727;51.974;20.868;2022-09-09T15:24:04;26.35;;;17.17;;
38937;SDS011;24727;51.974;20.868;2022-09-09T15:26:34;28.25;;;18.20;;
38937;SDS011;24727;51.974;20.868;2022-09-09T15:29:05;37.53;;;21.85;;
38937;SDS011;24727;51.974;20.868;2022-09-09T15:31:33;33.50;;;19.52;;
38937;SDS011;24727;51.974;20.868;2022-09-09T15:34:03;32.10;;;18.75;;
38937;SDS011;24727;51.974;20.868;2022-09-09T15:36:32;24.00;;;16.90;;
38937;SDS011;24727;51.974;20.868;2022-09-09T15:41:38;30.80;;;18.85;;
38937;SDS011;24727;51.974;20.868;2022-09-09T15:44:05;32.15;;;19.85;;
38937;SDS011;24727;51.974;20.868;2022-09-09T15:46:38;28.42;;;18.10;;
38937;SDS011;24727;51.974;20.868;2022-09-09T15:49:22;29.80;;;19.85;;
38937;SDS011;24727;51.974;20.868;2022-09-09T15:51:54;30.95;;;19.00;;
38937;SDS011;24727;51.974;20.868;2022-09-09T15:54:23;27.10;;;18.85;;
38937;SDS011;24727;51.974;20.868;2022-09-09T15:56:51;32.25;;;20.77;;
38937;SDS011;24727;51.974;20.868;2022-09-09T15:59:24;33.88;;;21.63;;
38937;SDS011;24727;51.974;20.868;2022-09-09T16:01:51;32.92;;;20.15;;
38937;SDS011;24727;51.974;20.868;2022-09-09T16:04:17;36.05;;;21.80;;
38937;SDS011;24727;51.974;20.868;2022-09-09T16:06:52;41.65;;;23.23;;
38937;SDS011;24727;51.974;20.868;2022-09-09T16:09:19;44.40;;;24.33;;
38937;SDS011;24727;51.974;20.868;2022-09-09T16:11:46;42.17;;;22.50;;
38937;SDS011;24727;51.974;20.868;2022-09-09T16:14:13;49.25;;;24.83;;
38937;SDS011;24727;51.974;20.868;2022-09-09T16:16:41;33.78;;;20.38;;
38937;SDS011;24727;51.974;20.868;2022-09-09T16:19:12;43.70;;;23.25;;
38937;SDS011;24727;51.974;20.868;2022-09-09T16:21:45;38.15;;;22.35;;
38937;SDS011;24727;51.974;20.868;2022-09-09T16:24:14;34.42;;;20.05;;
38937;SDS011;24727;51.974;20.868;2022-09-09T16:26:44;32.97;;;20.33;;
38937;SDS011;24727;51.974;20.868;2022-09-09T16:29:15;35.85;;;22.25;;
38937;SDS011;24727;51.974;20.868;2022-09-09T16:31:42;27.17;;;16.75;;
38937;SDS011;24727;51.974;20.868;2022-09-09T16:34:09;36.08;;;22.10;;
38937;SDS011;24727;51.974;20.868;2022-09-09T16:36:37;26.67;;;18.20;;
38937;SDS011;24727;51.974;20.868;2022-09-09T16:39:08;32.05;;;20.55;;
38937;SDS011;24727;51.974;20.868;2022-09-09T16:41:37;31.63;;;18.67;;
38937;SDS011;24727;51.974;20.868;2022-09-09T16:44:12;29.25;;;18.35;;
38937;SDS011;24727;51.974;20.868;2022-09-09T16:46:41;29.05;;;16.90;;
38937;SDS011;24727;51.974;20.868;2022-09-09T16:49:11;26.88;;;17.27;;
38937;SDS011;24727;51.974;20.868;2022-09-09T16:51:41;23.75;;;16.13;;
38937;SDS011;24727;51.974;20.868;2022-09-09T16:56:41;28.08;;;17.73;;
38937;SDS011;24727;51.974;20.868;2022-09-09T16:59:10;31.63;;;20.15;;
38937;SDS011;24727;51.974;20.868;2022-09-09T17:01:39;21.23;;;14.05;;
38937;SDS011;24727;51.974;20.868;2022-09-09T17:04:08;29.10;;;17.23;;
38937;SDS011;24727;51.974;20.868;2022-09-09T17:06:39;30.15;;;17.23;;
38937;SDS011;24727;51.974;20.868;2022-09-09T17:09:10;27.83;;;19.10;;
38937;SDS011;24727;51.974;20.868;2022-09-09T17:11:37;32.53;;;19.35;;
38937;SDS011;24727;51.974;20.868;2022-09-09T17:14:17;37.88;;;22.92;;